createdAt,value
2019-06-27T00:03:36.302Z,9.00
2019-06-27T00:08:31.161Z,9.18
2019-06-27T00:13:25.822Z,9.55
2019-06-27T00:18:20.433Z,9.38
2019-06-27T00:23:15.048Z,9.65
2019-06-27T00:28:09.774Z,10.58
2019-06-27T00:33:04.468Z,10.88
2019-06-27T00:37:59.096Z,10.68
2019-06-27T00:42:53.689Z,11.40
2019-06-27T00:47:48.300Z,10.82
2019-06-27T00:52:43.074Z,9.78
2019-06-27T00:57:37.824Z,9.93
2019-06-27T01:02:32.417Z,11.22
2019-06-27T01:07:27.029Z,10.85
2019-06-27T01:12:21.652Z,11.12
2019-06-27T01:17:16.243Z,11.22
2019-06-27T01:22:10.926Z,10.25
2019-06-27T01:27:05.524Z,10.60
2019-06-27T01:32:00.139Z,10.30
2019-06-27T01:36:54.816Z,10.88
2019-06-27T01:41:49.413Z,10.88
2019-06-27T01:46:44.028Z,10.10
2019-06-27T01:51:38.648Z,10.75
2019-06-27T01:56:33.251Z,10.93
2019-06-27T02:01:27.867Z,10.63
2019-06-27T02:06:22.479Z,10.43
2019-06-27T02:11:17.141Z,10.53
2019-06-27T02:16:11.748Z,11.70
2019-06-27T02:21:06.365Z,10.82
2019-06-27T02:26:00.997Z,10.48
2019-06-27T02:30:55.592Z,10.13
2019-06-27T02:35:50.201Z,10.30
2019-06-27T02:40:44.902Z,10.60
2019-06-27T02:45:39.583Z,10.93
2019-06-27T02:50:34.244Z,10.13
2019-06-27T02:55:29.599Z,10.03
2019-06-27T03:00:24.838Z,10.08
2019-06-27T03:05:20.057Z,10.82
2019-06-27T03:10:16.454Z,10.72
2019-06-27T03:15:13.191Z,10.28
2019-06-27T03:20:11.937Z,10.03
2019-06-27T03:25:07.449Z,10.53
2019-06-27T03:30:02.087Z,11.10
2019-06-27T03:34:56.681Z,11.48
2019-06-27T03:39:51.350Z,10.88
2019-06-27T03:44:45.967Z,10.95
2019-06-27T03:49:40.575Z,11.20
2019-06-27T03:54:35.169Z,12.58
2019-06-27T03:59:29.793Z,12.40
2019-06-27T04:04:24.405Z,12.15
2019-06-27T04:09:19.341Z,11.40
2019-06-27T04:14:13.961Z,11.68
2019-06-27T04:19:09.067Z,12.90
2019-06-27T04:24:03.753Z,9.05
2019-06-27T04:28:58.368Z,9.68
2019-06-27T04:33:52.959Z,9.40
2019-06-27T04:38:47.616Z,8.75
2019-06-27T04:43:42.283Z,9.43
2019-06-27T04:48:36.894Z,8.55
2019-06-27T04:53:31.504Z,9.38
2019-06-27T04:58:26.102Z,9.30
2019-06-27T05:03:20.719Z,10.50
2019-06-27T05:08:15.332Z,9.88
2019-06-27T05:13:09.939Z,10.82
2019-06-27T05:18:04.564Z,10.38
2019-06-27T05:22:59.183Z,9.25
2019-06-27T05:27:54.899Z,8.33
2019-06-27T05:32:49.495Z,9.15
2019-06-27T05:37:44.097Z,7.90
2019-06-27T05:42:38.703Z,9.50
2019-06-27T05:47:33.291Z,8.38
2019-06-27T05:52:27.932Z,8.35
2019-06-27T05:57:22.540Z,8.68
2019-06-27T06:02:17.178Z,9.48
2019-06-27T06:07:11.779Z,8.60
2019-06-27T06:12:06.387Z,9.08
2019-06-27T06:17:01.402Z,8.80
2019-06-27T06:21:56.026Z,10.25
2019-06-27T06:26:53.672Z,9.60
2019-06-27T06:31:51.482Z,9.98
2019-06-27T06:36:49.077Z,10.40
2019-06-27T06:41:43.659Z,10.20
2019-06-27T06:46:38.263Z,10.53
2019-06-27T06:51:33.480Z,9.53
2019-06-27T06:56:29.087Z,10.00
2019-06-27T07:01:24.270Z,10.65
2019-06-27T07:06:19.390Z,10.80
2019-06-27T07:11:13.976Z,10.38
2019-06-27T07:16:08.578Z,9.60
2019-06-27T07:21:03.288Z,10.48
2019-06-27T07:25:57.863Z,11.00
2019-06-27T07:30:52.608Z,11.40
2019-06-27T07:35:47.385Z,10.65
2019-06-27T07:40:42.344Z,10.48
2019-06-27T07:45:43.447Z,10.13
2019-06-27T07:50:38.327Z,11.05
2019-06-27T07:55:33.694Z,10.98
2019-06-27T08:00:28.467Z,10.55
2019-06-27T08:05:23.693Z,10.00
2019-06-27T08:10:18.933Z,10.08
2019-06-27T08:15:14.571Z,10.05
2019-06-27T08:20:09.576Z,10.38
2019-06-27T08:25:07.253Z,9.28
2019-06-27T08:30:02.082Z,9.83
2019-06-27T08:34:57.030Z,10.00
2019-06-27T08:39:51.720Z,9.40
2019-06-27T08:44:46.992Z,10.28
2019-06-27T08:49:41.947Z,9.58
2019-06-27T08:54:40.182Z,9.90
2019-06-27T08:59:34.948Z,9.40
2019-06-27T09:04:30.028Z,9.98
2019-06-27T09:09:24.832Z,9.48
2019-06-27T09:14:21.802Z,9.20
2019-06-27T09:19:17.255Z,9.58
2019-06-27T09:24:12.052Z,9.45
2019-06-27T09:29:06.869Z,9.05
2019-06-27T09:34:06.012Z,8.95
2019-06-27T09:39:00.987Z,9.18
2019-06-27T09:43:55.623Z,9.10
2019-06-27T09:48:50.396Z,9.60
2019-06-27T09:53:45.038Z,9.50
2019-06-27T09:58:39.633Z,9.08
2019-06-27T10:03:34.233Z,9.30
2019-06-27T10:08:28.830Z,8.68
2019-06-27T10:13:23.451Z,9.43
2019-06-27T10:18:18.029Z,9.90
2019-06-27T10:23:13.704Z,9.28
2019-06-27T10:28:08.579Z,9.53
2019-06-27T10:33:03.271Z,9.25
2019-06-27T10:37:58.051Z,9.70
2019-06-27T10:42:52.725Z,8.40
2019-06-27T10:47:48.067Z,8.65
2019-06-27T10:52:42.814Z,9.03
2019-06-27T10:57:37.400Z,9.03
2019-06-27T11:02:31.965Z,8.85
2019-06-27T11:07:26.564Z,8.48
2019-06-27T11:12:21.716Z,8.25
2019-06-27T11:17:16.364Z,8.23
2019-06-27T11:22:11.062Z,8.48
2019-06-27T11:27:05.719Z,8.30
2019-06-27T11:32:04.861Z,8.73
2019-06-27T11:36:59.616Z,9.35
2019-06-27T11:41:54.224Z,9.38
2019-06-27T11:46:48.970Z,8.95
2019-06-27T11:51:43.563Z,8.50
2019-06-27T11:56:38.238Z,8.58
2019-06-27T12:01:32.920Z,9.68
2019-06-27T12:06:27.555Z,9.23
2019-06-27T12:11:22.187Z,8.35
2019-06-27T12:16:16.783Z,8.63
2019-06-27T12:21:11.415Z,9.43
2019-06-27T12:26:06.666Z,9.53
2019-06-27T12:31:10.323Z,8.93
2019-06-27T12:35:58.207Z,9.05
2019-06-27T12:40:52.793Z,10.03
2019-06-27T12:45:47.404Z,9.33
2019-06-27T12:50:42.318Z,9.65
2019-06-27T12:55:37.186Z,9.83
2019-06-27T13:00:31.789Z,9.70
2019-06-27T13:05:32.354Z,9.35
2019-06-27T13:10:35.739Z,9.38
2019-06-27T13:15:29.949Z,9.33
2019-06-27T13:20:25.409Z,10.28
2019-06-27T13:25:21.046Z,9.93
2019-06-27T13:30:16.052Z,9.70
2019-06-27T13:35:11.613Z,9.53
2019-06-27T13:40:08.368Z,9.25
2019-06-27T13:45:03.354Z,10.75
2019-06-27T13:49:57.986Z,10.40
2019-06-27T13:54:52.681Z,10.53
2019-06-27T13:59:47.507Z,10.00
2019-06-27T14:04:56.736Z,9.48
2019-06-27T14:09:52.229Z,9.75
2019-06-27T14:14:36.148Z,9.80
2019-06-27T14:19:30.772Z,10.15
2019-06-27T14:24:25.368Z,9.50
2019-06-27T14:29:19.958Z,10.25
2019-06-27T14:34:14.848Z,10.50
2019-06-27T14:39:10.488Z,9.98
2019-06-27T14:44:05.164Z,9.23
2019-06-27T14:48:59.833Z,10.25
2019-06-27T14:53:54.490Z,10.00
2019-06-27T14:58:49.117Z,10.10
2019-06-27T15:03:43.769Z,9.78
2019-06-27T15:08:38.353Z,10.75
2019-06-27T15:13:33.029Z,9.53
2019-06-27T15:18:27.620Z,10.05
2019-06-27T15:23:22.289Z,9.90
2019-06-27T15:28:16.908Z,10.25
2019-06-27T15:33:11.513Z,10.13
2019-06-27T15:38:06.111Z,10.40
2019-06-27T15:43:03.727Z,10.25
2019-06-27T15:48:04.416Z,10.30
2019-06-27T15:53:05.374Z,10.88
2019-06-27T15:58:10.317Z,10.48
2019-06-27T16:03:10.277Z,10.55
2019-06-27T16:08:05.290Z,11.08
2019-06-27T16:13:02.402Z,10.68
2019-06-27T16:17:56.179Z,10.20
2019-06-27T16:22:50.786Z,10.58
2019-06-27T16:27:45.379Z,11.18
2019-06-27T16:32:39.968Z,11.10
2019-06-27T16:37:34.559Z,10.30
2019-06-27T16:42:29.166Z,11.35
2019-06-27T16:47:23.752Z,10.63
2019-06-27T16:52:18.343Z,10.63
2019-06-27T16:57:12.989Z,10.78
2019-06-27T17:02:08.381Z,11.43
2019-06-27T17:07:02.960Z,11.45
2019-06-27T17:11:57.554Z,10.78
2019-06-27T17:16:52.227Z,11.05
2019-06-27T17:21:46.824Z,11.43
2019-06-27T17:26:41.412Z,11.00
2019-06-27T17:31:36.010Z,10.70
2019-06-27T17:36:30.607Z,11.33
2019-06-27T17:41:25.216Z,10.93
2019-06-27T17:46:19.800Z,11.30
2019-06-27T17:51:14.397Z,10.70
2019-06-27T17:56:08.998Z,11.05
2019-06-27T18:01:03.652Z,11.22
2019-06-27T18:05:58.238Z,11.35
2019-06-27T18:10:52.836Z,11.28
2019-06-27T18:15:47.437Z,11.63
2019-06-27T18:20:42.017Z,11.85
2019-06-27T18:25:36.615Z,12.10
2019-06-27T18:30:31.218Z,11.88
2019-06-27T18:35:25.808Z,12.93
2019-06-27T18:40:22.315Z,12.60
2019-06-27T18:45:17.281Z,12.45
2019-06-27T18:50:12.675Z,11.45
2019-06-27T18:55:07.574Z,12.78
2019-06-27T19:00:02.319Z,12.30
2019-06-27T19:04:57.061Z,12.68
2019-06-27T19:09:51.635Z,12.23
2019-06-27T19:14:46.229Z,12.13
2019-06-27T19:19:42.455Z,11.97
2019-06-27T19:24:54.115Z,12.55
2019-06-27T19:29:48.699Z,13.48
2019-06-27T19:34:43.383Z,13.10
2019-06-27T19:39:38.230Z,12.58
2019-06-27T19:44:32.827Z,11.63
2019-06-27T19:49:27.401Z,11.73
2019-06-27T19:54:22.096Z,11.75
2019-06-27T19:59:17.035Z,11.30
2019-06-27T20:04:11.654Z,11.15
2019-06-27T20:09:06.786Z,11.12
2019-06-27T20:14:02.153Z,10.90
2019-06-27T20:18:56.811Z,10.82
2019-06-27T20:23:51.406Z,11.15
2019-06-27T20:28:46.066Z,11.53
2019-06-27T20:33:40.666Z,11.60
2019-06-27T20:38:35.597Z,11.68
2019-06-27T20:43:30.368Z,12.40
2019-06-27T20:48:25.366Z,12.23
2019-06-27T20:53:19.959Z,12.63
2019-06-27T20:58:14.550Z,12.43
2019-06-27T21:03:09.156Z,12.55
2019-06-27T21:08:03.739Z,12.53
2019-06-27T21:12:58.403Z,13.00
2019-06-27T21:17:53.000Z,11.88
2019-06-27T21:22:47.622Z,13.00
2019-06-27T21:27:42.260Z,12.15
2019-06-27T21:32:36.870Z,11.85
2019-06-27T21:37:31.465Z,12.20
2019-06-27T21:42:26.042Z,12.07
2019-06-27T21:47:20.655Z,11.70
2019-06-27T21:52:15.248Z,11.60
2019-06-27T21:57:09.853Z,10.10
2019-06-27T22:02:04.901Z,10.28
2019-06-27T22:06:59.506Z,10.00
2019-06-27T22:11:54.168Z,8.83
2019-06-27T22:16:48.826Z,9.13
2019-06-27T22:21:43.414Z,8.13
2019-06-27T22:26:38.011Z,8.05
2019-06-27T22:31:32.580Z,8.15
2019-06-27T22:36:27.179Z,7.35
2019-06-27T22:41:39.819Z,6.62
2019-06-27T22:46:52.471Z,6.60
2019-06-27T22:51:58.115Z,6.72
2019-06-27T22:56:52.714Z,6.47
2019-06-27T23:01:47.359Z,6.40
2019-06-27T23:06:41.949Z,6.12
2019-06-27T23:11:36.524Z,6.65
2019-06-27T23:16:31.187Z,7.50
2019-06-27T23:21:25.756Z,6.30
2019-06-27T23:26:20.355Z,6.22
2019-06-27T23:31:15.031Z,5.92
2019-06-27T23:36:09.627Z,5.50
2019-06-27T23:41:04.214Z,5.12
2019-06-27T23:45:58.798Z,5.15
2019-06-27T23:50:53.384Z,4.53
2019-06-27T23:55:47.964Z,3.70
